createdAt,value
2022-11-06T00:01:54.792Z,101231.81
2022-11-06T00:04:22.732Z,101228.25
2022-11-06T00:06:49.790Z,101221.56
2022-11-06T00:09:20.317Z,101218.84
2022-11-06T00:11:49.097Z,101214.41
2022-11-06T00:14:17.471Z,101223.59
2022-11-06T00:16:47.696Z,101227.91
2022-11-06T00:19:16.039Z,101227.16
2022-11-06T00:21:43.961Z,101221.06
2022-11-06T00:24:13.589Z,101221.19
2022-11-06T00:26:41.949Z,101218.72
2022-11-06T00:29:11.973Z,101209.97
2022-11-06T00:31:39.895Z,101197.03
2022-11-06T00:34:09.182Z,101200.94
2022-11-06T00:36:37.130Z,101194.88
2022-11-06T00:39:05.272Z,101191.78
2022-11-06T00:41:33.159Z,101189.63
2022-11-06T00:44:02.961Z,101196.28
2022-11-06T00:46:31.409Z,101193.59
2022-11-06T00:48:59.346Z,101206.34
2022-11-06T00:51:30.135Z,101191.97
2022-11-06T00:53:59.628Z,101188.41
2022-11-06T00:56:27.752Z,101192.84
2022-11-06T00:58:55.922Z,101190.66
2022-11-06T01:01:28.403Z,101188.84
2022-11-06T01:03:58.424Z,101185.91
2022-11-06T01:06:29.467Z,101181.56
2022-11-06T01:08:57.779Z,101181.81
2022-11-06T01:11:37.462Z,101172.72
2022-11-06T01:14:16.677Z,101172.63
2022-11-06T01:16:44.891Z,101170.53
2022-11-06T01:19:13.667Z,101172.28
2022-11-06T01:21:44.980Z,101168.59
2022-11-06T01:24:14.361Z,101160.50
2022-11-06T01:26:58.439Z,101167.53
2022-11-06T01:29:30.500Z,101153.00
2022-11-06T01:31:58.428Z,101156.81
2022-11-06T01:34:26.337Z,101150.44
2022-11-06T01:36:55.693Z,101157.22
2022-11-06T01:39:23.632Z,101148.91
2022-11-06T01:41:53.453Z,101147.16
2022-11-06T01:44:58.784Z,101147.91
2022-11-06T01:47:28.115Z,101143.66
2022-11-06T01:49:59.288Z,101139.34
2022-11-06T01:52:29.701Z,101142.44
2022-11-06T01:54:59.662Z,101146.22
2022-11-06T01:57:27.656Z,101135.56
2022-11-06T01:59:55.980Z,101133.72
2022-11-06T02:02:24.380Z,101120.94
2022-11-06T02:04:52.354Z,101123.88
2022-11-06T02:07:21.242Z,101128.34
2022-11-06T02:09:50.527Z,101124.03
2022-11-06T02:12:23.231Z,101127.72
2022-11-06T02:14:58.827Z,101124.03
2022-11-06T02:17:36.629Z,101123.13
2022-11-06T02:20:08.584Z,101127.00
2022-11-06T02:22:55.168Z,101111.56
2022-11-06T02:25:32.298Z,101110.94
2022-11-06T02:28:04.817Z,101103.56
2022-11-06T02:30:36.053Z,101099.66
2022-11-06T02:33:06.991Z,101096.44
2022-11-06T02:35:38.633Z,101101.13
2022-11-06T02:38:08.587Z,101098.56
2022-11-06T02:40:39.647Z,101094.84
2022-11-06T02:43:10.655Z,101093.75
2022-11-06T02:45:42.799Z,101088.34
2022-11-06T02:48:11.957Z,101081.97
2022-11-06T02:50:41.920Z,101083.22
2022-11-06T02:53:11.031Z,101087.00
2022-11-06T02:55:40.498Z,101075.31
2022-11-06T02:58:14.390Z,101073.03
2022-11-06T03:00:43.740Z,101070.41
2022-11-06T03:03:14.562Z,101074.00
2022-11-06T03:05:49.112Z,101073.03
2022-11-06T03:08:20.336Z,101077.81
2022-11-06T03:10:59.929Z,101067.84
2022-11-06T03:13:40.595Z,101072.28
2022-11-06T03:16:13.905Z,101068.59
2022-11-06T03:18:45.049Z,101071.28
2022-11-06T03:21:20.296Z,101065.16
2022-11-06T03:23:53.724Z,101054.56
2022-11-06T03:26:25.518Z,101060.13
2022-11-06T03:28:56.375Z,101057.78
2022-11-06T03:31:27.897Z,101044.38
2022-11-06T03:33:59.495Z,101050.75
2022-11-06T03:36:31.912Z,101049.06
2022-11-06T03:39:02.136Z,101053.84
2022-11-06T03:41:33.404Z,101056.41
2022-11-06T03:44:03.184Z,101045.25
2022-11-06T03:46:31.856Z,101046.81
2022-11-06T03:49:02.489Z,101043.84
2022-11-06T03:51:34.948Z,101035.00
2022-11-06T03:54:05.492Z,101049.84
2022-11-06T03:56:38.495Z,101046.41
2022-11-06T03:59:09.406Z,101041.84
2022-11-06T04:01:39.171Z,101035.47
2022-11-06T04:04:09.627Z,101042.38
2022-11-06T04:06:40.791Z,101039.69
2022-11-06T04:09:28.820Z,101043.13
2022-11-06T04:12:15.964Z,101039.56
2022-11-06T04:14:48.315Z,101046.19
2022-11-06T04:17:17.294Z,101048.03
2022-11-06T04:19:48.212Z,101042.75
2022-11-06T04:22:35.948Z,101040.78
2022-11-06T04:25:30.486Z,101037.34
2022-11-06T04:28:22.824Z,101041.28
2022-11-06T04:30:58.201Z,101034.88
2022-11-06T04:33:28.965Z,101042.03
2022-11-06T04:36:03.212Z,101038.44
2022-11-06T04:38:41.050Z,101049.13
2022-11-06T04:41:16.108Z,101041.66
2022-11-06T04:43:47.105Z,101050.41
2022-11-06T04:46:22.277Z,101036.66
2022-11-06T04:48:50.857Z,101035.66
2022-11-06T04:51:22.420Z,101045.09
2022-11-06T04:53:51.128Z,101055.16
2022-11-06T04:56:25.798Z,101053.19
2022-11-06T04:58:53.961Z,101051.50
2022-11-06T05:01:23.439Z,101055.03
2022-11-06T05:03:51.432Z,101046.94
2022-11-06T05:06:19.467Z,101048.19
2022-11-06T05:08:47.399Z,101038.59
2022-11-06T05:11:15.299Z,101039.44
2022-11-06T05:13:43.194Z,101043.50
2022-11-06T05:16:11.152Z,101046.69
2022-11-06T05:18:40.402Z,101043.88
2022-11-06T05:21:25.615Z,101049.28
2022-11-06T05:23:53.517Z,101051.75
2022-11-06T05:26:21.389Z,101042.16
2022-11-06T05:28:49.440Z,101044.34
2022-11-06T05:31:17.397Z,101036.25
2022-11-06T05:33:46.680Z,101050.88
2022-11-06T05:36:14.591Z,101043.63
2022-11-06T05:38:42.507Z,101036.63
2022-11-06T05:41:10.460Z,101039.41
2022-11-06T05:43:38.513Z,101031.69
2022-11-06T05:46:14.997Z,101030.53
2022-11-06T05:48:53.316Z,101036.22
2022-11-06T05:51:21.826Z,101034.56
2022-11-06T05:53:49.736Z,101033.25
2022-11-06T05:56:17.698Z,101031.13
2022-11-06T05:58:45.615Z,101041.22
2022-11-06T06:01:14.141Z,101031.50
2022-11-06T06:03:42.065Z,101035.44
2022-11-06T06:06:11.352Z,101026.47
2022-11-06T06:08:39.260Z,101031.00
2022-11-06T06:11:08.231Z,101030.75
2022-11-06T06:13:37.422Z,101027.81
2022-11-06T06:16:05.839Z,101028.78
2022-11-06T06:18:33.760Z,101019.81
2022-11-06T06:21:01.713Z,101025.13
2022-11-06T06:23:31.026Z,101027.69
2022-11-06T06:25:58.995Z,101034.84
2022-11-06T06:28:26.939Z,101024.88
2022-11-06T06:31:00.090Z,101029.94
2022-11-06T06:33:29.367Z,101027.22
2022-11-06T06:35:57.257Z,101030.81
2022-11-06T06:38:26.164Z,101029.81
2022-11-06T06:40:55.460Z,101028.59
2022-11-06T06:43:23.348Z,101031.91
2022-11-06T06:45:51.660Z,101031.03
2022-11-06T06:48:19.588Z,101039.28
2022-11-06T06:50:47.512Z,101032.13
2022-11-06T06:53:15.416Z,101029.81
2022-11-06T06:55:43.459Z,101029.31
2022-11-06T06:58:17.651Z,101033.34
2022-11-06T07:00:46.211Z,101028.94
2022-11-06T07:03:14.389Z,101026.31
2022-11-06T07:05:42.273Z,101030.47
2022-11-06T07:08:10.371Z,101033.41
2022-11-06T07:10:38.572Z,101040.16
2022-11-06T07:13:06.751Z,101037.09
2022-11-06T07:15:36.346Z,101028.75
2022-11-06T07:18:04.890Z,101023.47
2022-11-06T07:20:33.612Z,101036.75
2022-11-06T07:23:06.724Z,101030.94
2022-11-06T07:25:34.659Z,101033.66
2022-11-06T07:28:03.299Z,101034.16
2022-11-06T07:30:31.629Z,101044.00
2022-11-06T07:33:03.069Z,101046.47
2022-11-06T07:35:31.445Z,101036.63
2022-11-06T07:37:59.349Z,101053.56
2022-11-06T07:40:27.318Z,101041.78
2022-11-06T07:42:55.221Z,101050.63
2022-11-06T07:45:23.181Z,101049.31
2022-11-06T07:47:55.134Z,101054.34
2022-11-06T07:50:27.802Z,101056.56
2022-11-06T07:52:55.732Z,101057.88
2022-11-06T07:55:23.616Z,101046.47
2022-11-06T07:57:51.560Z,101031.84
2022-11-06T08:00:20.835Z,101031.09
2022-11-06T08:02:52.165Z,101026.19
2022-11-06T08:05:20.065Z,101044.44
2022-11-06T08:07:49.664Z,101044.00
2022-11-06T08:10:17.867Z,101045.38
2022-11-06T08:12:45.825Z,101052.97
2022-11-06T08:15:13.789Z,101040.97
2022-11-06T08:17:41.700Z,101036.94
2022-11-06T08:20:11.055Z,101029.22
2022-11-06T08:22:38.977Z,101024.03
2022-11-06T08:25:10.035Z,101032.53
2022-11-06T08:27:38.044Z,101040.41
2022-11-06T08:30:06.863Z,101039.31
2022-11-06T08:32:34.772Z,101032.56
2022-11-06T08:35:02.702Z,101034.41
2022-11-06T08:37:30.608Z,101026.94
2022-11-06T08:39:58.530Z,101024.22
2022-11-06T08:42:27.823Z,101025.56
2022-11-06T08:44:55.779Z,101028.53
2022-11-06T08:47:23.739Z,101014.16
2022-11-06T08:49:51.627Z,101007.78
2022-11-06T08:52:19.564Z,101008.75
2022-11-06T08:54:47.472Z,101008.03
2022-11-06T08:57:15.358Z,100997.22
2022-11-06T08:59:44.652Z,101003.94
2022-11-06T09:02:13.810Z,100997.31
2022-11-06T09:04:41.909Z,101004.06
2022-11-06T09:07:10.451Z,101007.78
2022-11-06T09:09:38.367Z,101007.78
2022-11-06T09:12:07.135Z,101013.69
2022-11-06T09:14:35.084Z,101003.00
2022-11-06T09:17:04.452Z,101007.53
2022-11-06T09:19:32.524Z,101007.28
2022-11-06T09:22:00.467Z,100999.28
2022-11-06T09:24:50.037Z,100990.91
2022-11-06T09:27:16.316Z,100999.91
2022-11-06T09:29:45.008Z,100998.78
2022-11-06T09:32:14.330Z,100996.56
2022-11-06T09:34:42.284Z,101000.25
2022-11-06T09:37:10.166Z,100996.69
2022-11-06T09:39:38.187Z,100998.06
2022-11-06T09:42:15.888Z,100988.59
2022-11-06T09:44:53.054Z,100980.69
2022-11-06T09:47:26.620Z,100974.81
2022-11-06T09:49:56.308Z,100982.88
2022-11-06T09:52:31.787Z,100979.50
2022-11-06T09:55:03.432Z,100973.00
2022-11-06T09:57:36.563Z,100971.38
2022-11-06T10:00:08.041Z,100987.06
2022-11-06T10:02:44.027Z,100991.88
2022-11-06T10:05:17.716Z,100993.31
2022-11-06T10:07:47.108Z,100986.41
2022-11-06T10:10:18.226Z,100995.38
2022-11-06T10:12:58.560Z,100996.25
2022-11-06T10:15:28.638Z,101000.69
2022-11-06T10:18:04.247Z,101003.38
2022-11-06T10:20:33.781Z,100988.50
2022-11-06T10:23:06.129Z,100975.69
2022-11-06T10:25:45.544Z,100981.97
2022-11-06T10:28:24.575Z,100975.78
2022-11-06T10:30:58.722Z,100972.16
2022-11-06T10:33:36.495Z,100977.56
2022-11-06T10:36:07.353Z,100981.00
2022-11-06T10:38:37.389Z,100973.44
2022-11-06T10:41:05.532Z,100970.22
2022-11-06T10:43:35.466Z,100961.56
2022-11-06T10:46:12.039Z,100950.34
2022-11-06T10:48:45.381Z,100948.97
2022-11-06T10:51:28.511Z,100945.88
2022-11-06T10:54:05.069Z,100931.63
2022-11-06T10:56:54.261Z,100922.31
2022-11-06T10:59:22.211Z,100914.38
2022-11-06T11:01:50.638Z,100915.88
2022-11-06T11:04:20.054Z,100919.88
2022-11-06T11:06:48.020Z,100918.88
2022-11-06T11:09:28.814Z,100917.88
2022-11-06T11:11:56.783Z,100925.91
2022-11-06T11:14:25.809Z,100921.03
2022-11-06T11:16:54.332Z,100918.03
2022-11-06T11:19:35.016Z,100922.75
2022-11-06T11:22:05.285Z,100925.19
2022-11-06T11:24:33.756Z,100908.31
2022-11-06T11:27:03.183Z,100918.16
2022-11-06T11:29:33.574Z,100926.03
2022-11-06T11:32:03.995Z,100918.28
2022-11-06T11:34:35.744Z,100912.69
2022-11-06T11:37:05.017Z,100911.56
2022-11-06T11:39:34.079Z,100907.88
2022-11-06T11:42:18.516Z,100906.19
2022-11-06T11:44:46.443Z,100901.75
2022-11-06T11:47:22.424Z,100897.97
2022-11-06T11:49:51.932Z,100894.38
2022-11-06T11:52:21.736Z,100892.53
2022-11-06T11:54:52.576Z,100891.50
2022-11-06T11:57:23.340Z,100888.53
2022-11-06T11:59:55.633Z,100880.81
2022-11-06T12:02:29.547Z,100872.69
2022-11-06T12:05:01.237Z,100874.97
2022-11-06T12:07:30.718Z,100870.28
2022-11-06T12:10:00.330Z,100865.09
2022-11-06T12:12:32.492Z,100865.94
2022-11-06T12:15:19.530Z,100857.53
2022-11-06T12:17:54.764Z,100853.09
2022-11-06T12:20:28.519Z,100846.13
2022-11-06T12:22:57.879Z,100856.09
2022-11-06T12:25:29.413Z,100854.09
2022-11-06T12:28:00.760Z,100844.09
2022-11-06T12:30:30.016Z,100839.41
2022-11-06T12:33:04.604Z,100821.09
2022-11-06T12:35:36.450Z,100824.19
2022-11-06T12:38:13.987Z,100817.25
2022-11-06T12:40:43.457Z,100817.91
2022-11-06T12:43:19.597Z,100812.09
2022-11-06T12:45:59.515Z,100813.16
2022-11-06T12:48:38.858Z,100802.38
2022-11-06T12:51:14.138Z,100798.16
2022-11-06T12:53:52.408Z,100791.41
2022-11-06T12:56:25.562Z,100795.53
2022-11-06T12:59:14.164Z,100786.19
2022-11-06T13:01:53.577Z,100775.09
2022-11-06T13:04:31.784Z,100779.66
2022-11-06T13:07:24.557Z,100771.72
2022-11-06T13:09:59.154Z,100769.06
2022-11-06T13:12:35.108Z,100761.22
2022-11-06T13:15:10.068Z,100763.81
2022-11-06T13:17:42.767Z,100755.25
2022-11-06T13:20:16.899Z,100766.97
2022-11-06T13:22:50.986Z,100754.13
2022-11-06T13:25:23.261Z,100753.69
2022-11-06T13:27:55.093Z,100759.56
2022-11-06T13:30:25.028Z,100744.88
2022-11-06T13:33:01.256Z,100753.22
2022-11-06T13:35:29.460Z,100759.63
2022-11-06T13:37:58.947Z,100754.63
2022-11-06T13:40:30.008Z,100755.09
2022-11-06T13:43:02.736Z,100742.34
2022-11-06T13:45:34.975Z,100744.50
2022-11-06T13:48:15.374Z,100745.00
2022-11-06T13:50:48.820Z,100747.00
2022-11-06T13:53:22.384Z,100736.59
2022-11-06T13:55:59.317Z,100735.47
2022-11-06T13:58:49.221Z,100723.00
2022-11-06T14:01:26.201Z,100724.81
2022-11-06T14:04:10.916Z,100721.34
2022-11-06T14:06:39.987Z,100725.72
2022-11-06T14:09:12.039Z,100716.59
2022-11-06T14:11:41.658Z,100690.41
2022-11-06T14:14:14.679Z,100692.13
2022-11-06T14:16:44.166Z,100687.84
2022-11-06T14:19:15.431Z,100697.03
2022-11-06T14:21:47.138Z,100678.16
2022-11-06T14:24:30.671Z,100685.47
2022-11-06T14:26:59.319Z,100680.19
2022-11-06T14:30:00.770Z,100686.28
2022-11-06T14:32:45.570Z,100672.63
2022-11-06T14:35:42.361Z,100666.22
2022-11-06T14:38:17.975Z,100672.66
2022-11-06T14:40:47.316Z,100668.09
2022-11-06T14:43:19.306Z,100669.09
2022-11-06T14:45:51.888Z,100666.53
2022-11-06T14:48:27.763Z,100665.53
2022-11-06T14:50:55.686Z,100659.25
2022-11-06T14:53:26.752Z,100654.38
2022-11-06T14:56:00.470Z,100659.09
2022-11-06T14:58:31.099Z,100663.97
2022-11-06T15:01:00.732Z,100663.13
2022-11-06T15:03:43.629Z,100662.69
2022-11-06T15:06:34.956Z,100645.00
2022-11-06T15:09:06.344Z,100650.81
2022-11-06T15:11:56.484Z,100650.28
2022-11-06T15:14:54.425Z,100658.78
2022-11-06T15:17:24.375Z,100653.25
2022-11-06T15:19:59.204Z,100659.22
2022-11-06T15:22:31.261Z,100657.50
2022-11-06T15:25:01.637Z,100670.81
2022-11-06T15:27:38.933Z,100675.66
2022-11-06T15:30:15.913Z,100683.66
2022-11-06T15:32:45.976Z,100678.63
2022-11-06T15:35:17.063Z,100679.09
2022-11-06T15:37:47.237Z,100691.38
2022-11-06T15:40:29.831Z,100690.94
2022-11-06T15:43:02.076Z,100688.34
2022-11-06T15:45:30.771Z,100687.47
2022-11-06T15:48:00.284Z,100683.94
2022-11-06T15:50:29.459Z,100680.91
2022-11-06T15:53:20.942Z,100688.19
2022-11-06T15:55:52.165Z,100681.06
2022-11-06T15:58:31.180Z,100663.34
2022-11-06T16:01:00.312Z,100668.78
2022-11-06T16:03:30.441Z,100670.78
2022-11-06T16:06:00.370Z,100669.78
2022-11-06T16:08:30.296Z,100664.78
2022-11-06T16:10:59.121Z,100648.66
2022-11-06T16:13:29.437Z,100647.22
2022-11-06T16:15:58.940Z,100657.34
2022-11-06T16:18:28.777Z,100644.66
2022-11-06T16:20:58.346Z,100646.94
2022-11-06T16:23:36.268Z,100653.59
2022-11-06T16:26:08.291Z,100637.94
2022-11-06T16:28:38.627Z,100641.63
2022-11-06T16:31:09.560Z,100640.75
2022-11-06T16:33:37.488Z,100637.63
2022-11-06T16:36:10.604Z,100640.31
2022-11-06T16:38:43.708Z,100642.19
2022-11-06T16:41:37.433Z,100643.31
2022-11-06T16:44:29.631Z,100646.44
2022-11-06T16:47:20.381Z,100636.47
2022-11-06T16:49:53.562Z,100629.31
2022-11-06T16:52:28.075Z,100614.34
2022-11-06T16:54:59.107Z,100620.06
2022-11-06T16:57:28.639Z,100616.75
2022-11-06T17:00:06.676Z,100607.63
2022-11-06T17:02:36.938Z,100609.63
2022-11-06T17:05:08.989Z,100615.19
2022-11-06T17:07:37.107Z,100603.78
2022-11-06T17:10:42.024Z,100589.94
2022-11-06T17:13:18.561Z,100593.94
2022-11-06T17:15:49.733Z,100584.38
2022-11-06T17:18:22.344Z,100595.06
2022-11-06T17:20:54.120Z,100592.63
2022-11-06T17:23:22.899Z,100584.38
2022-11-06T17:25:52.526Z,100584.09
2022-11-06T17:28:20.434Z,100588.25
2022-11-06T17:30:49.865Z,100582.13
2022-11-06T17:33:17.976Z,100572.00
2022-11-06T17:35:45.948Z,100568.84
2022-11-06T17:38:15.321Z,100572.41
2022-11-06T17:40:43.524Z,100565.72
2022-11-06T17:43:12.003Z,100565.28
2022-11-06T17:45:40.777Z,100570.53
2022-11-06T17:48:10.074Z,100557.59
2022-11-06T17:50:51.808Z,100560.28
2022-11-06T17:53:19.696Z,100564.56
2022-11-06T17:55:47.681Z,100563.75
2022-11-06T17:58:15.910Z,100556.44
2022-11-06T18:00:44.028Z,100558.28
2022-11-06T18:03:19.391Z,100551.19
2022-11-06T18:05:47.643Z,100545.50
2022-11-06T18:08:16.335Z,100546.75
2022-11-06T18:10:44.580Z,100534.19
2022-11-06T18:13:12.499Z,100544.63
2022-11-06T18:15:40.664Z,100533.47
2022-11-06T18:18:08.593Z,100544.75
2022-11-06T18:20:37.866Z,100526.22
2022-11-06T18:23:05.742Z,100521.78
2022-11-06T18:25:33.969Z,100520.22
2022-11-06T18:28:03.857Z,100515.66
2022-11-06T18:30:31.939Z,100509.53
2022-11-06T18:32:59.866Z,100511.81
2022-11-06T18:35:27.816Z,100503.09
2022-11-06T18:37:57.079Z,100500.38
2022-11-06T18:40:24.972Z,100504.94
2022-11-06T18:42:54.436Z,100494.69
2022-11-06T18:45:22.401Z,100497.97
2022-11-06T18:47:50.318Z,100498.81
2022-11-06T18:50:18.297Z,100490.25
2022-11-06T18:52:57.642Z,100493.97
2022-11-06T18:55:27.678Z,100483.13
2022-11-06T18:57:55.764Z,100491.41
2022-11-06T19:00:24.236Z,100483.88
2022-11-06T19:02:52.799Z,100484.84
2022-11-06T19:05:20.908Z,100482.28
2022-11-06T19:07:52.852Z,100466.75
2022-11-06T19:10:23.255Z,100473.16
2022-11-06T19:12:52.504Z,100475.00
2022-11-06T19:15:20.430Z,100461.63
2022-11-06T19:17:48.300Z,100463.47
2022-11-06T19:20:16.414Z,100469.03
2022-11-06T19:22:44.327Z,100468.03
2022-11-06T19:25:12.227Z,100466.31
2022-11-06T19:27:40.177Z,100461.47
2022-11-06T19:30:10.650Z,100461.19
2022-11-06T19:32:38.599Z,100467.19
2022-11-06T19:35:07.104Z,100452.34
2022-11-06T19:37:36.173Z,100448.50
2022-11-06T19:40:06.152Z,100449.66
2022-11-06T19:42:34.494Z,100449.66
2022-11-06T19:45:02.506Z,100459.78
2022-11-06T19:47:32.715Z,100453.22
2022-11-06T19:50:00.639Z,100453.66
2022-11-06T19:52:41.171Z,100445.97
2022-11-06T19:55:26.453Z,100444.66
2022-11-06T19:57:55.593Z,100448.09
2022-11-06T20:00:23.532Z,100441.69
2022-11-06T20:02:52.816Z,100444.81
2022-11-06T20:05:20.739Z,100446.50
2022-11-06T20:07:48.643Z,100444.25
2022-11-06T20:10:16.864Z,100447.38
2022-11-06T20:12:44.781Z,100447.94
2022-11-06T20:15:12.675Z,100442.78
2022-11-06T20:17:40.595Z,100444.78
2022-11-06T20:20:12.764Z,100448.84
2022-11-06T20:22:40.682Z,100444.97
2022-11-06T20:25:09.139Z,100456.22
2022-11-06T20:27:37.193Z,100456.19
2022-11-06T20:30:06.235Z,100459.16
2022-11-06T20:32:34.980Z,100472.31
2022-11-06T20:35:05.787Z,100479.66
2022-11-06T20:37:35.675Z,100470.59
2022-11-06T20:40:03.959Z,100476.06
2022-11-06T20:42:32.412Z,100480.34
2022-11-06T20:45:00.317Z,100465.53
2022-11-06T20:47:28.258Z,100459.81
2022-11-06T20:49:56.177Z,100452.47
2022-11-06T20:52:24.088Z,100441.63
2022-11-06T20:54:53.414Z,100429.34
2022-11-06T20:57:21.301Z,100424.16
2022-11-06T20:59:49.292Z,100424.81
2022-11-06T21:02:17.563Z,100415.00
2022-11-06T21:04:45.598Z,100406.63
2022-11-06T21:07:13.618Z,100408.63
2022-11-06T21:09:41.494Z,100397.88
2022-11-06T21:12:11.516Z,100397.75
2022-11-06T21:14:39.391Z,100391.13
2022-11-06T21:17:07.935Z,100391.06
2022-11-06T21:19:37.002Z,100394.03
2022-11-06T21:22:04.866Z,100393.56
2022-11-06T21:24:32.800Z,100386.59
2022-11-06T21:27:00.763Z,100393.78
2022-11-06T21:29:30.223Z,100389.84
2022-11-06T21:31:58.117Z,100383.84
2022-11-06T21:34:26.400Z,100379.78
2022-11-06T21:36:56.995Z,100380.34
2022-11-06T21:39:33.171Z,100369.47
2022-11-06T21:42:04.367Z,100370.19
2022-11-06T21:44:33.785Z,100364.47
2022-11-06T21:47:01.720Z,100366.63
2022-11-06T21:49:30.100Z,100366.53
2022-11-06T21:52:18.077Z,100365.81
2022-11-06T21:55:03.606Z,100367.28
2022-11-06T21:57:31.546Z,100365.66
2022-11-06T22:00:01.371Z,100376.59
2022-11-06T22:02:29.426Z,100370.19
2022-11-06T22:04:57.436Z,100362.31
2022-11-06T22:07:25.360Z,100362.72
2022-11-06T22:09:53.349Z,100362.78
2022-11-06T22:12:21.351Z,100360.00
2022-11-06T22:14:51.143Z,100360.94
2022-11-06T22:17:20.569Z,100353.69
2022-11-06T22:19:48.486Z,100354.66
2022-11-06T22:22:16.524Z,100356.91
2022-11-06T22:24:44.428Z,100355.41
2022-11-06T22:27:12.317Z,100351.88
2022-11-06T22:29:40.224Z,100357.84
2022-11-06T22:32:08.264Z,100354.66
2022-11-06T22:34:37.601Z,100349.16
2022-11-06T22:37:05.605Z,100352.97
2022-11-06T22:39:33.494Z,100338.81
2022-11-06T22:42:01.718Z,100343.66
2022-11-06T22:44:32.887Z,100335.31
2022-11-06T22:47:01.272Z,100334.19
2022-11-06T22:49:29.269Z,100334.06
2022-11-06T22:51:58.528Z,100334.94
2022-11-06T22:54:29.416Z,100341.06
2022-11-06T22:56:57.283Z,100336.97
2022-11-06T22:59:28.305Z,100333.13
2022-11-06T23:01:56.226Z,100342.56
2022-11-06T23:04:24.264Z,100346.38
2022-11-06T23:06:52.140Z,100346.69
2022-11-06T23:09:21.388Z,100350.84
2022-11-06T23:11:49.376Z,100347.41
2022-11-06T23:14:17.293Z,100350.84
2022-11-06T23:17:00.869Z,100346.72
2022-11-06T23:19:30.362Z,100343.91
2022-11-06T23:22:12.173Z,100338.63
2022-11-06T23:24:41.552Z,100340.06
2022-11-06T23:27:10.658Z,100342.34
2022-11-06T23:29:38.762Z,100347.50
2022-11-06T23:32:07.492Z,100343.66
2022-11-06T23:34:35.548Z,100341.16
2022-11-06T23:37:03.489Z,100349.97
2022-11-06T23:39:31.380Z,100356.50
2022-11-06T23:42:00.691Z,100357.22
2022-11-06T23:44:45.948Z,100358.41
2022-11-06T23:47:13.820Z,100354.94
2022-11-06T23:49:41.695Z,100354.94
2022-11-06T23:52:09.608Z,100369.06
2022-11-06T23:54:37.523Z,100376.63
2022-11-06T23:57:06.829Z,100376.81
2022-11-06T23:59:34.728Z,100363.69
